sensor_id;sensor_type;location;lat;lon;timestamp;P1;durP1;ratioP1;P2;durP2;ratioP2
30613;SDS011;17381;51.690;5.270;2023-03-21T00:25:35;18.63;;;11.65;;
30613;SDS011;17381;51.690;5.270;2023-03-21T01:04:52;16.80;;;12.80;;
30613;SDS011;17381;51.690;5.270;2023-03-21T01:14:47;23.50;;;15.05;;
30613;SDS011;17381;51.690;5.270;2023-03-21T01:18:01;25.55;;;15.70;;
30613;SDS011;17381;51.690;5.270;2023-03-21T01:59:45;16.85;;;11.63;;
30613;SDS011;17381;51.690;5.270;2023-03-21T02:02:50;18.02;;;11.27;;
30613;SDS011;17381;51.690;5.270;2023-03-21T02:09:49;20.33;;;11.25;;
30613;SDS011;17381;51.690;5.270;2023-03-21T02:20:22;21.27;;;11.48;;
30613;SDS011;17381;51.690;5.270;2023-03-21T02:40:52;17.88;;;9.73;;
30613;SDS011;17381;51.690;5.270;2023-03-21T02:44:04;19.15;;;9.38;;
30613;SDS011;17381;51.690;5.270;2023-03-21T02:51:26;14.00;;;8.13;;
30613;SDS011;17381;51.690;5.270;2023-03-21T02:54:25;15.43;;;8.90;;
30613;SDS011;17381;51.690;5.270;2023-03-21T03:01:09;14.43;;;8.25;;
30613;SDS011;17381;51.690;5.270;2023-03-21T03:07:42;14.45;;;7.50;;
30613;SDS011;17381;51.690;5.270;2023-03-21T03:15:02;15.07;;;7.68;;
30613;SDS011;17381;51.690;5.270;2023-03-21T03:27:03;10.27;;;5.88;;
30613;SDS011;17381;51.690;5.270;2023-03-21T03:38:09;12.98;;;6.72;;
30613;SDS011;17381;51.690;5.270;2023-03-21T03:55:27;14.93;;;6.47;;
30613;SDS011;17381;51.690;5.270;2023-03-21T03:59:12;10.63;;;6.20;;
30613;SDS011;17381;51.690;5.270;2023-03-21T04:10:11;13.02;;;5.75;;
30613;SDS011;17381;51.690;5.270;2023-03-21T04:12:42;13.35;;;6.32;;
30613;SDS011;17381;51.690;5.270;2023-03-21T04:15:34;14.40;;;6.55;;
30613;SDS011;17381;51.690;5.270;2023-03-21T04:18:20;11.75;;;6.00;;
30613;SDS011;17381;51.690;5.270;2023-03-21T04:20:58;12.30;;;5.65;;
30613;SDS011;17381;51.690;5.270;2023-03-21T04:23:55;12.13;;;5.68;;
30613;SDS011;17381;51.690;5.270;2023-03-21T04:26:27;11.95;;;6.10;;
30613;SDS011;17381;51.690;5.270;2023-03-21T04:29:20;12.82;;;6.30;;
30613;SDS011;17381;51.690;5.270;2023-03-21T04:32:21;14.57;;;6.97;;
30613;SDS011;17381;51.690;5.270;2023-03-21T04:34:59;12.70;;;6.18;;
30613;SDS011;17381;51.690;5.270;2023-03-21T04:37:26;17.08;;;7.63;;
30613;SDS011;17381;51.690;5.270;2023-03-21T04:39:56;16.23;;;7.57;;
30613;SDS011;17381;51.690;5.270;2023-03-21T04:42:28;12.10;;;6.30;;
30613;SDS011;17381;51.690;5.270;2023-03-21T04:44:54;11.23;;;6.07;;
30613;SDS011;17381;51.690;5.270;2023-03-21T04:47:43;15.73;;;7.25;;
30613;SDS011;17381;51.690;5.270;2023-03-21T04:50:15;14.10;;;7.70;;
30613;SDS011;17381;51.690;5.270;2023-03-21T04:53:01;12.05;;;6.53;;
30613;SDS011;17381;51.690;5.270;2023-03-21T04:55:33;13.18;;;6.72;;
30613;SDS011;17381;51.690;5.270;2023-03-21T04:58:02;12.52;;;6.63;;
30613;SDS011;17381;51.690;5.270;2023-03-21T05:00:29;13.57;;;6.65;;
30613;SDS011;17381;51.690;5.270;2023-03-21T05:02:59;16.52;;;7.55;;
30613;SDS011;17381;51.690;5.270;2023-03-21T05:05:26;13.13;;;6.38;;
30613;SDS011;17381;51.690;5.270;2023-03-21T05:07:58;16.58;;;7.00;;
30613;SDS011;17381;51.690;5.270;2023-03-21T05:10:24;17.05;;;7.55;;
30613;SDS011;17381;51.690;5.270;2023-03-21T05:12:57;12.65;;;6.20;;
30613;SDS011;17381;51.690;5.270;2023-03-21T05:15:32;14.85;;;7.35;;
30613;SDS011;17381;51.690;5.270;2023-03-21T05:18:04;13.00;;;6.97;;
30613;SDS011;17381;51.690;5.270;2023-03-21T05:20:55;16.85;;;7.05;;
30613;SDS011;17381;51.690;5.270;2023-03-21T05:23:32;13.48;;;7.43;;
30613;SDS011;17381;51.690;5.270;2023-03-21T05:26:07;13.63;;;6.70;;
30613;SDS011;17381;51.690;5.270;2023-03-21T05:28:56;13.38;;;7.07;;
30613;SDS011;17381;51.690;5.270;2023-03-21T05:31:39;10.35;;;6.78;;
30613;SDS011;17381;51.690;5.270;2023-03-21T05:34:19;15.15;;;6.95;;
30613;SDS011;17381;51.690;5.270;2023-03-21T05:36:57;17.42;;;7.50;;
30613;SDS011;17381;51.690;5.270;2023-03-21T05:39:50;12.85;;;6.75;;
30613;SDS011;17381;51.690;5.270;2023-03-21T05:45:16;12.02;;;6.72;;
30613;SDS011;17381;51.690;5.270;2023-03-21T05:47:49;17.20;;;7.20;;
30613;SDS011;17381;51.690;5.270;2023-03-21T05:50:19;13.55;;;6.40;;
30613;SDS011;17381;51.690;5.270;2023-03-21T05:53:04;14.35;;;7.10;;
30613;SDS011;17381;51.690;5.270;2023-03-21T05:55:31;15.55;;;6.53;;
30613;SDS011;17381;51.690;5.270;2023-03-21T05:58:07;13.35;;;6.95;;
30613;SDS011;17381;51.690;5.270;2023-03-21T06:00:48;12.25;;;6.78;;
30613;SDS011;17381;51.690;5.270;2023-03-21T06:03:23;18.85;;;7.28;;
30613;SDS011;17381;51.690;5.270;2023-03-21T06:06:06;14.63;;;6.95;;
30613;SDS011;17381;51.690;5.270;2023-03-21T06:09:03;11.88;;;6.00;;
30613;SDS011;17381;51.690;5.270;2023-03-21T06:11:34;12.90;;;6.47;;
30613;SDS011;17381;51.690;5.270;2023-03-21T06:14:25;14.55;;;6.30;;
30613;SDS011;17381;51.690;5.270;2023-03-21T06:17:13;15.40;;;6.72;;
30613;SDS011;17381;51.690;5.270;2023-03-21T06:19:48;13.48;;;6.68;;
30613;SDS011;17381;51.690;5.270;2023-03-21T06:22:30;17.25;;;7.10;;
30613;SDS011;17381;51.690;5.270;2023-03-21T06:25:04;14.98;;;7.10;;
30613;SDS011;17381;51.690;5.270;2023-03-21T06:27:36;11.88;;;6.32;;
30613;SDS011;17381;51.690;5.270;2023-03-21T06:30:05;10.45;;;5.85;;
30613;SDS011;17381;51.690;5.270;2023-03-21T06:32:46;11.35;;;5.70;;
30613;SDS011;17381;51.690;5.270;2023-03-21T06:35:21;12.70;;;6.32;;
30613;SDS011;17381;51.690;5.270;2023-03-21T06:37:47;10.93;;;5.45;;
30613;SDS011;17381;51.690;5.270;2023-03-21T06:40:15;14.90;;;6.57;;
30613;SDS011;17381;51.690;5.270;2023-03-21T06:42:51;13.32;;;6.90;;
30613;SDS011;17381;51.690;5.270;2023-03-21T06:45:20;13.40;;;5.50;;
30613;SDS011;17381;51.690;5.270;2023-03-21T06:47:52;14.88;;;6.03;;
30613;SDS011;17381;51.690;5.270;2023-03-21T06:50:30;12.07;;;5.70;;
30613;SDS011;17381;51.690;5.270;2023-03-21T06:53:05;14.35;;;6.00;;
30613;SDS011;17381;51.690;5.270;2023-03-21T06:55:52;17.55;;;6.55;;
30613;SDS011;17381;51.690;5.270;2023-03-21T06:58:29;13.27;;;6.22;;
30613;SDS011;17381;51.690;5.270;2023-03-21T07:00:59;15.65;;;6.50;;
30613;SDS011;17381;51.690;5.270;2023-03-21T07:03:46;13.57;;;5.97;;
30613;SDS011;17381;51.690;5.270;2023-03-21T07:06:19;13.90;;;6.80;;
30613;SDS011;17381;51.690;5.270;2023-03-21T07:08:46;12.25;;;6.32;;
30613;SDS011;17381;51.690;5.270;2023-03-21T07:11:24;14.30;;;6.53;;
30613;SDS011;17381;51.690;5.270;2023-03-21T07:14:05;13.32;;;6.32;;
30613;SDS011;17381;51.690;5.270;2023-03-21T07:16:39;13.98;;;6.35;;
30613;SDS011;17381;51.690;5.270;2023-03-21T07:19:14;14.07;;;6.13;;
30613;SDS011;17381;51.690;5.270;2023-03-21T07:21:49;11.85;;;6.22;;
30613;SDS011;17381;51.690;5.270;2023-03-21T07:24:23;16.60;;;7.05;;
30613;SDS011;17381;51.690;5.270;2023-03-21T07:27:04;15.30;;;6.88;;
30613;SDS011;17381;51.690;5.270;2023-03-21T07:29:42;11.80;;;6.05;;
30613;SDS011;17381;51.690;5.270;2023-03-21T07:32:11;16.80;;;6.25;;
30613;SDS011;17381;51.690;5.270;2023-03-21T07:34:44;14.00;;;6.43;;
30613;SDS011;17381;51.690;5.270;2023-03-21T07:37:15;15.07;;;6.00;;
30613;SDS011;17381;51.690;5.270;2023-03-21T07:39:44;16.77;;;6.38;;
30613;SDS011;17381;51.690;5.270;2023-03-21T07:42:22;17.48;;;7.53;;
30613;SDS011;17381;51.690;5.270;2023-03-21T07:44:54;17.35;;;6.63;;
30613;SDS011;17381;51.690;5.270;2023-03-21T07:47:23;15.85;;;6.03;;
30613;SDS011;17381;51.690;5.270;2023-03-21T07:50:15;13.52;;;6.18;;
30613;SDS011;17381;51.690;5.270;2023-03-21T07:52:47;12.23;;;5.97;;
30613;SDS011;17381;51.690;5.270;2023-03-21T07:55:28;10.57;;;5.53;;
30613;SDS011;17381;51.690;5.270;2023-03-21T07:58:05;13.43;;;5.38;;
30613;SDS011;17381;51.690;5.270;2023-03-21T08:00:42;11.15;;;6.05;;
30613;SDS011;17381;51.690;5.270;2023-03-21T08:03:16;13.05;;;6.35;;
30613;SDS011;17381;51.690;5.270;2023-03-21T08:05:46;10.40;;;5.55;;
30613;SDS011;17381;51.690;5.270;2023-03-21T08:08:12;11.85;;;5.80;;
30613;SDS011;17381;51.690;5.270;2023-03-21T08:10:43;14.38;;;6.05;;
30613;SDS011;17381;51.690;5.270;2023-03-21T08:13:13;13.52;;;6.07;;
30613;SDS011;17381;51.690;5.270;2023-03-21T08:15:53;14.70;;;6.13;;
30613;SDS011;17381;51.690;5.270;2023-03-21T08:18:22;15.65;;;6.53;;
30613;SDS011;17381;51.690;5.270;2023-03-21T08:20:55;10.73;;;5.82;;
30613;SDS011;17381;51.690;5.270;2023-03-21T08:23:24;14.57;;;6.47;;
30613;SDS011;17381;51.690;5.270;2023-03-21T08:26:28;15.65;;;6.15;;
30613;SDS011;17381;51.690;5.270;2023-03-21T08:29:00;9.32;;;5.40;;
30613;SDS011;17381;51.690;5.270;2023-03-21T08:31:26;12.98;;;6.53;;
30613;SDS011;17381;51.690;5.270;2023-03-21T08:33:53;12.40;;;5.97;;
30613;SDS011;17381;51.690;5.270;2023-03-21T08:36:23;11.20;;;5.85;;
30613;SDS011;17381;51.690;5.270;2023-03-21T08:38:50;11.18;;;5.82;;
30613;SDS011;17381;51.690;5.270;2023-03-21T08:41:33;15.75;;;6.97;;
30613;SDS011;17381;51.690;5.270;2023-03-21T08:44:10;14.70;;;7.07;;
30613;SDS011;17381;51.690;5.270;2023-03-21T08:46:56;13.93;;;6.03;;
30613;SDS011;17381;51.690;5.270;2023-03-21T08:51:59;16.33;;;6.32;;
30613;SDS011;17381;51.690;5.270;2023-03-21T08:54:33;11.95;;;6.78;;
30613;SDS011;17381;51.690;5.270;2023-03-21T08:57:08;11.32;;;6.32;;
30613;SDS011;17381;51.690;5.270;2023-03-21T08:59:39;13.88;;;7.05;;
30613;SDS011;17381;51.690;5.270;2023-03-21T09:02:05;12.35;;;6.53;;
30613;SDS011;17381;51.690;5.270;2023-03-21T09:04:45;15.07;;;6.82;;
30613;SDS011;17381;51.690;5.270;2023-03-21T09:07:26;12.43;;;7.03;;
30613;SDS011;17381;51.690;5.270;2023-03-21T09:10:07;13.77;;;6.72;;
30613;SDS011;17381;51.690;5.270;2023-03-21T09:12:49;13.52;;;6.68;;
30613;SDS011;17381;51.690;5.270;2023-03-21T09:15:19;11.80;;;5.97;;
30613;SDS011;17381;51.690;5.270;2023-03-21T09:17:51;13.55;;;6.18;;
30613;SDS011;17381;51.690;5.270;2023-03-21T09:20:22;12.07;;;6.32;;
30613;SDS011;17381;51.690;5.270;2023-03-21T09:23:03;11.93;;;6.38;;
30613;SDS011;17381;51.690;5.270;2023-03-21T09:25:35;15.48;;;6.88;;
30613;SDS011;17381;51.690;5.270;2023-03-21T09:28:10;10.20;;;5.57;;
30613;SDS011;17381;51.690;5.270;2023-03-21T09:30:43;11.75;;;5.60;;
30613;SDS011;17381;51.690;5.270;2023-03-21T09:33:13;11.38;;;5.88;;
30613;SDS011;17381;51.690;5.270;2023-03-21T09:35:53;11.88;;;5.50;;
30613;SDS011;17381;51.690;5.270;2023-03-21T09:38:26;15.52;;;5.80;;
30613;SDS011;17381;51.690;5.270;2023-03-21T09:41:06;12.20;;;5.90;;
30613;SDS011;17381;51.690;5.270;2023-03-21T09:44:13;9.98;;;5.15;;
30613;SDS011;17381;51.690;5.270;2023-03-21T09:47:16;14.05;;;5.93;;
30613;SDS011;17381;51.690;5.270;2023-03-21T09:49:58;12.35;;;5.32;;
30613;SDS011;17381;51.690;5.270;2023-03-21T09:55:31;12.98;;;4.90;;
30613;SDS011;17381;51.690;5.270;2023-03-21T09:58:12;11.00;;;5.88;;
30613;SDS011;17381;51.690;5.270;2023-03-21T10:04:04;8.80;;;4.63;;
30613;SDS011;17381;51.690;5.270;2023-03-21T10:06:56;9.83;;;4.60;;
30613;SDS011;17381;51.690;5.270;2023-03-21T10:09:34;10.55;;;4.80;;
30613;SDS011;17381;51.690;5.270;2023-03-21T10:12:10;9.80;;;4.63;;
30613;SDS011;17381;51.690;5.270;2023-03-21T10:14:50;13.40;;;4.40;;
30613;SDS011;17381;51.690;5.270;2023-03-21T10:17:28;11.32;;;4.97;;
30613;SDS011;17381;51.690;5.270;2023-03-21T10:20:24;11.20;;;4.63;;
30613;SDS011;17381;51.690;5.270;2023-03-21T10:22:55;7.35;;;4.20;;
30613;SDS011;17381;51.690;5.270;2023-03-21T10:25:33;9.23;;;4.60;;
30613;SDS011;17381;51.690;5.270;2023-03-21T10:28:23;12.55;;;5.40;;
30613;SDS011;17381;51.690;5.270;2023-03-21T10:31:13;11.90;;;4.65;;
30613;SDS011;17381;51.690;5.270;2023-03-21T10:33:45;12.73;;;4.88;;
30613;SDS011;17381;51.690;5.270;2023-03-21T10:36:28;9.57;;;4.43;;
30613;SDS011;17381;51.690;5.270;2023-03-21T10:42:17;9.43;;;4.10;;
30613;SDS011;17381;51.690;5.270;2023-03-21T10:44:52;12.15;;;5.10;;
30613;SDS011;17381;51.690;5.270;2023-03-21T10:47:34;10.75;;;4.88;;
30613;SDS011;17381;51.690;5.270;2023-03-21T10:50:10;11.68;;;4.90;;
30613;SDS011;17381;51.690;5.270;2023-03-21T10:52:54;12.35;;;5.05;;
30613;SDS011;17381;51.690;5.270;2023-03-21T10:55:32;13.23;;;4.63;;
30613;SDS011;17381;51.690;5.270;2023-03-21T10:58:17;13.60;;;4.65;;
30613;SDS011;17381;51.690;5.270;2023-03-21T11:01:00;10.15;;;5.30;;
30613;SDS011;17381;51.690;5.270;2023-03-21T11:03:36;10.88;;;4.35;;
30613;SDS011;17381;51.690;5.270;2023-03-21T11:06:16;9.02;;;4.65;;
30613;SDS011;17381;51.690;5.270;2023-03-21T11:09:08;10.93;;;4.70;;
30613;SDS011;17381;51.690;5.270;2023-03-21T11:14:45;9.80;;;4.53;;
30613;SDS011;17381;51.690;5.270;2023-03-21T11:17:24;11.60;;;4.82;;
30613;SDS011;17381;51.690;5.270;2023-03-21T11:20:07;8.02;;;4.00;;
30613;SDS011;17381;51.690;5.270;2023-03-21T11:22:40;9.45;;;4.13;;
30613;SDS011;17381;51.690;5.270;2023-03-21T11:25:34;9.10;;;4.03;;
30613;SDS011;17381;51.690;5.270;2023-03-21T11:28:13;10.25;;;3.78;;
30613;SDS011;17381;51.690;5.270;2023-03-21T11:31:01;8.55;;;4.00;;
30613;SDS011;17381;51.690;5.270;2023-03-21T11:33:41;8.50;;;3.60;;
30613;SDS011;17381;51.690;5.270;2023-03-21T11:38:50;11.23;;;4.35;;
30613;SDS011;17381;51.690;5.270;2023-03-21T11:41:40;9.65;;;4.07;;
30613;SDS011;17381;51.690;5.270;2023-03-21T11:47:11;10.30;;;4.00;;
30613;SDS011;17381;51.690;5.270;2023-03-21T11:49:49;10.93;;;4.18;;
30613;SDS011;17381;51.690;5.270;2023-03-21T11:52:33;10.75;;;3.80;;
30613;SDS011;17381;51.690;5.270;2023-03-21T11:58:29;7.68;;;3.55;;
30613;SDS011;17381;51.690;5.270;2023-03-21T12:01:18;9.50;;;4.07;;
30613;SDS011;17381;51.690;5.270;2023-03-21T12:25:43;10.70;;;3.78;;
30613;SDS011;17381;51.690;5.270;2023-03-21T12:28:42;9.30;;;4.10;;
30613;SDS011;17381;51.690;5.270;2023-03-21T12:31:50;9.38;;;4.07;;
30613;SDS011;17381;51.690;5.270;2023-03-21T12:34:47;8.93;;;4.55;;
30613;SDS011;17381;51.690;5.270;2023-03-21T12:40:42;9.88;;;3.90;;
30613;SDS011;17381;51.690;5.270;2023-03-21T12:49:22;13.30;;;4.82;;
30613;SDS011;17381;51.690;5.270;2023-03-21T12:52:22;8.63;;;3.90;;
30613;SDS011;17381;51.690;5.270;2023-03-21T12:55:17;11.52;;;4.30;;
30613;SDS011;17381;51.690;5.270;2023-03-21T12:57:59;9.80;;;2.90;;
30613;SDS011;17381;51.690;5.270;2023-03-21T13:00:55;5.35;;;2.30;;
30613;SDS011;17381;51.690;5.270;2023-03-21T13:03:45;8.40;;;2.85;;
30613;SDS011;17381;51.690;5.270;2023-03-21T13:06:19;7.82;;;2.50;;
30613;SDS011;17381;51.690;5.270;2023-03-21T13:11:22;7.10;;;2.80;;
30613;SDS011;17381;51.690;5.270;2023-03-21T13:16:57;6.95;;;2.63;;
30613;SDS011;17381;51.690;5.270;2023-03-21T13:19:56;8.98;;;3.00;;
30613;SDS011;17381;51.690;5.270;2023-03-21T13:22:48;8.23;;;3.30;;
30613;SDS011;17381;51.690;5.270;2023-03-21T13:25:45;9.23;;;2.80;;
30613;SDS011;17381;51.690;5.270;2023-03-21T13:28:30;11.82;;;5.15;;
30613;SDS011;17381;51.690;5.270;2023-03-21T13:31:19;6.80;;;2.70;;
30613;SDS011;17381;51.690;5.270;2023-03-21T13:34:06;8.52;;;3.25;;
30613;SDS011;17381;51.690;5.270;2023-03-21T13:36:51;9.75;;;3.85;;
30613;SDS011;17381;51.690;5.270;2023-03-21T13:39:32;6.60;;;3.80;;
30613;SDS011;17381;51.690;5.270;2023-03-21T13:42:02;9.90;;;3.85;;
30613;SDS011;17381;51.690;5.270;2023-03-21T13:44:56;7.53;;;2.90;;
30613;SDS011;17381;51.690;5.270;2023-03-21T13:47:34;6.53;;;2.33;;
30613;SDS011;17381;51.690;5.270;2023-03-21T13:50:30;8.30;;;2.80;;
30613;SDS011;17381;51.690;5.270;2023-03-21T13:53:23;6.85;;;3.33;;
30613;SDS011;17381;51.690;5.270;2023-03-21T13:56:27;6.57;;;2.72;;
30613;SDS011;17381;51.690;5.270;2023-03-21T14:02:31;8.25;;;3.00;;
30613;SDS011;17381;51.690;5.270;2023-03-21T14:05:05;7.95;;;2.97;;
30613;SDS011;17381;51.690;5.270;2023-03-21T14:07:55;8.18;;;2.97;;
30613;SDS011;17381;51.690;5.270;2023-03-21T14:10:41;10.27;;;3.78;;
30613;SDS011;17381;51.690;5.270;2023-03-21T14:13:33;6.18;;;3.00;;
30613;SDS011;17381;51.690;5.270;2023-03-21T14:16:16;10.60;;;3.42;;
30613;SDS011;17381;51.690;5.270;2023-03-21T14:19:08;6.35;;;2.78;;
30613;SDS011;17381;51.690;5.270;2023-03-21T14:21:45;7.38;;;3.42;;
30613;SDS011;17381;51.690;5.270;2023-03-21T14:25:05;6.75;;;2.90;;
30613;SDS011;17381;51.690;5.270;2023-03-21T14:27:53;7.72;;;3.63;;
30613;SDS011;17381;51.690;5.270;2023-03-21T14:31:02;6.82;;;3.25;;
30613;SDS011;17381;51.690;5.270;2023-03-21T14:33:56;5.43;;;2.80;;
30613;SDS011;17381;51.690;5.270;2023-03-21T14:36:51;8.52;;;3.22;;
30613;SDS011;17381;51.690;5.270;2023-03-21T14:39:39;8.30;;;3.10;;
30613;SDS011;17381;51.690;5.270;2023-03-21T14:42:10;6.20;;;3.17;;
30613;SDS011;17381;51.690;5.270;2023-03-21T14:44:53;9.07;;;3.10;;
30613;SDS011;17381;51.690;5.270;2023-03-21T14:47:30;8.20;;;3.05;;
30613;SDS011;17381;51.690;5.270;2023-03-21T14:50:11;6.32;;;3.58;;
30613;SDS011;17381;51.690;5.270;2023-03-21T14:52:51;9.05;;;3.33;;
30613;SDS011;17381;51.690;5.270;2023-03-21T14:55:31;10.95;;;3.22;;
30613;SDS011;17381;51.690;5.270;2023-03-21T14:58:17;7.30;;;3.08;;
30613;SDS011;17381;51.690;5.270;2023-03-21T15:01:00;6.13;;;3.47;;
30613;SDS011;17381;51.690;5.270;2023-03-21T15:03:35;6.57;;;3.70;;
30613;SDS011;17381;51.690;5.270;2023-03-21T15:06:10;10.27;;;3.78;;
30613;SDS011;17381;51.690;5.270;2023-03-21T15:09:04;7.90;;;4.18;;
30613;SDS011;17381;51.690;5.270;2023-03-21T15:11:36;8.90;;;4.03;;
30613;SDS011;17381;51.690;5.270;2023-03-21T15:14:07;12.23;;;3.57;;
30613;SDS011;17381;51.690;5.270;2023-03-21T15:16:37;7.00;;;3.92;;
30613;SDS011;17381;51.690;5.270;2023-03-21T15:19:03;7.75;;;3.25;;
30613;SDS011;17381;51.690;5.270;2023-03-21T15:21:33;6.32;;;3.05;;
30613;SDS011;17381;51.690;5.270;2023-03-21T15:24:13;8.13;;;3.53;;
30613;SDS011;17381;51.690;5.270;2023-03-21T15:27:01;5.88;;;2.70;;
30613;SDS011;17381;51.690;5.270;2023-03-21T15:29:40;5.28;;;3.22;;
30613;SDS011;17381;51.690;5.270;2023-03-21T15:32:32;6.07;;;3.22;;
30613;SDS011;17381;51.690;5.270;2023-03-21T15:35:05;7.00;;;3.53;;
30613;SDS011;17381;51.690;5.270;2023-03-21T15:37:41;6.93;;;3.20;;
30613;SDS011;17381;51.690;5.270;2023-03-21T15:40:20;6.40;;;2.75;;
30613;SDS011;17381;51.690;5.270;2023-03-21T15:43:36;7.65;;;3.03;;
30613;SDS011;17381;51.690;5.270;2023-03-21T15:45:54;7.45;;;3.35;;
30613;SDS011;17381;51.690;5.270;2023-03-21T15:48:28;9.80;;;4.13;;
30613;SDS011;17381;51.690;5.270;2023-03-21T15:51:10;7.78;;;3.33;;
30613;SDS011;17381;51.690;5.270;2023-03-21T15:53:50;6.63;;;2.75;;
30613;SDS011;17381;51.690;5.270;2023-03-21T16:25:41;7.80;;;3.67;;
30613;SDS011;17381;51.690;5.270;2023-03-21T16:43:41;13.38;;;4.13;;
30613;SDS011;17381;51.690;5.270;2023-03-21T16:50:04;9.35;;;5.80;;
30613;SDS011;17381;51.690;5.270;2023-03-21T16:53:44;9.95;;;5.70;;
30613;SDS011;17381;51.690;5.270;2023-03-21T16:56:55;9.60;;;5.28;;
30613;SDS011;17381;51.690;5.270;2023-03-21T16:59:41;8.18;;;4.30;;
30613;SDS011;17381;51.690;5.270;2023-03-21T17:02:39;9.48;;;4.75;;
30613;SDS011;17381;51.690;5.270;2023-03-21T17:05:52;7.85;;;4.43;;
30613;SDS011;17381;51.690;5.270;2023-03-21T17:09:02;9.15;;;4.55;;
30613;SDS011;17381;51.690;5.270;2023-03-21T17:16:07;7.65;;;4.65;;
30613;SDS011;17381;51.690;5.270;2023-03-21T17:19:00;6.60;;;4.63;;
30613;SDS011;17381;51.690;5.270;2023-03-21T17:24:49;8.15;;;4.90;;
30613;SDS011;17381;51.690;5.270;2023-03-21T17:27:51;7.15;;;4.72;;
30613;SDS011;17381;51.690;5.270;2023-03-21T17:30:49;6.80;;;4.18;;
30613;SDS011;17381;51.690;5.270;2023-03-21T17:36:37;9.15;;;4.63;;
30613;SDS011;17381;51.690;5.270;2023-03-21T17:39:27;6.22;;;4.60;;
30613;SDS011;17381;51.690;5.270;2023-03-21T17:43:04;7.00;;;4.35;;
30613;SDS011;17381;51.690;5.270;2023-03-21T17:49:19;10.93;;;4.60;;
30613;SDS011;17381;51.690;5.270;2023-03-21T17:52:12;7.50;;;4.20;;
30613;SDS011;17381;51.690;5.270;2023-03-21T17:55:09;5.63;;;3.85;;
30613;SDS011;17381;51.690;5.270;2023-03-21T17:58:01;7.88;;;4.75;;
30613;SDS011;17381;51.690;5.270;2023-03-21T18:00:36;6.70;;;4.03;;
30613;SDS011;17381;51.690;5.270;2023-03-21T18:03:31;6.45;;;4.07;;
30613;SDS011;17381;51.690;5.270;2023-03-21T18:06:38;8.80;;;4.38;;
30613;SDS011;17381;51.690;5.270;2023-03-21T18:09:49;7.55;;;4.38;;
30613;SDS011;17381;51.690;5.270;2023-03-21T18:12:55;8.50;;;4.32;;
30613;SDS011;17381;51.690;5.270;2023-03-21T18:22:16;7.22;;;4.20;;
30613;SDS011;17381;51.690;5.270;2023-03-21T18:25:08;6.57;;;4.18;;
30613;SDS011;17381;51.690;5.270;2023-03-21T18:28:07;7.00;;;3.80;;
30613;SDS011;17381;51.690;5.270;2023-03-21T18:31:32;7.40;;;4.25;;
30613;SDS011;17381;51.690;5.270;2023-03-21T18:34:58;5.60;;;3.75;;
30613;SDS011;17381;51.690;5.270;2023-03-21T18:37:48;8.52;;;4.25;;
30613;SDS011;17381;51.690;5.270;2023-03-21T18:44:07;7.07;;;4.00;;
30613;SDS011;17381;51.690;5.270;2023-03-21T18:50:28;7.15;;;4.03;;
30613;SDS011;17381;51.690;5.270;2023-03-21T18:53:37;9.68;;;4.63;;
30613;SDS011;17381;51.690;5.270;2023-03-21T18:56:50;5.90;;;4.00;;
30613;SDS011;17381;51.690;5.270;2023-03-21T19:03:09;7.20;;;3.70;;
30613;SDS011;17381;51.690;5.270;2023-03-21T19:06:07;8.98;;;5.03;;
30613;SDS011;17381;51.690;5.270;2023-03-21T19:08:41;6.65;;;4.15;;
30613;SDS011;17381;51.690;5.270;2023-03-21T19:11:15;8.57;;;4.93;;
30613;SDS011;17381;51.690;5.270;2023-03-21T19:13:46;7.88;;;4.30;;
30613;SDS011;17381;51.690;5.270;2023-03-21T19:16:15;9.23;;;4.63;;
30613;SDS011;17381;51.690;5.270;2023-03-21T19:18:52;7.33;;;3.90;;
30613;SDS011;17381;51.690;5.270;2023-03-21T19:21:24;7.13;;;4.32;;
30613;SDS011;17381;51.690;5.270;2023-03-21T19:24:01;8.13;;;4.22;;
30613;SDS011;17381;51.690;5.270;2023-03-21T19:26:39;8.05;;;4.38;;
30613;SDS011;17381;51.690;5.270;2023-03-21T19:29:06;8.10;;;4.53;;
30613;SDS011;17381;51.690;5.270;2023-03-21T19:31:45;7.25;;;4.03;;
30613;SDS011;17381;51.690;5.270;2023-03-21T19:34:52;8.68;;;4.82;;
30613;SDS011;17381;51.690;5.270;2023-03-21T19:37:20;9.75;;;5.28;;
30613;SDS011;17381;51.690;5.270;2023-03-21T19:39:49;9.23;;;5.15;;
30613;SDS011;17381;51.690;5.270;2023-03-21T19:42:20;7.90;;;4.50;;
30613;SDS011;17381;51.690;5.270;2023-03-21T19:45:18;7.75;;;4.68;;
30613;SDS011;17381;51.690;5.270;2023-03-21T19:48:48;8.85;;;4.40;;
30613;SDS011;17381;51.690;5.270;2023-03-21T19:51:23;6.78;;;4.32;;
30613;SDS011;17381;51.690;5.270;2023-03-21T19:53:50;8.75;;;5.07;;
30613;SDS011;17381;51.690;5.270;2023-03-21T19:56:22;8.68;;;5.38;;
30613;SDS011;17381;51.690;5.270;2023-03-21T19:59:00;7.45;;;4.53;;
30613;SDS011;17381;51.690;5.270;2023-03-21T20:01:38;8.10;;;5.20;;
30613;SDS011;17381;51.690;5.270;2023-03-21T20:08:12;7.37;;;4.70;;
30613;SDS011;17381;51.690;5.270;2023-03-21T20:10:52;8.55;;;5.50;;
30613;SDS011;17381;51.690;5.270;2023-03-21T20:13:24;9.27;;;5.63;;
30613;SDS011;17381;51.690;5.270;2023-03-21T20:15:56;9.23;;;5.32;;
30613;SDS011;17381;51.690;5.270;2023-03-21T20:18:27;8.75;;;5.75;;
30613;SDS011;17381;51.690;5.270;2023-03-21T20:21:01;9.00;;;5.32;;
30613;SDS011;17381;51.690;5.270;2023-03-21T20:23:34;8.10;;;5.30;;
30613;SDS011;17381;51.690;5.270;2023-03-21T20:26:10;8.70;;;5.60;;
30613;SDS011;17381;51.690;5.270;2023-03-21T20:32:38;10.35;;;6.18;;
30613;SDS011;17381;51.690;5.270;2023-03-21T20:35:23;9.45;;;6.53;;
30613;SDS011;17381;51.690;5.270;2023-03-21T20:45:41;11.07;;;6.40;;
30613;SDS011;17381;51.690;5.270;2023-03-21T20:48:11;9.43;;;6.28;;
30613;SDS011;17381;51.690;5.270;2023-03-21T20:54:37;10.10;;;5.90;;
30613;SDS011;17381;51.690;5.270;2023-03-21T20:57:21;13.73;;;6.78;;
30613;SDS011;17381;51.690;5.270;2023-03-21T20:59:58;10.80;;;6.00;;
30613;SDS011;17381;51.690;5.270;2023-03-21T21:06:14;14.50;;;7.53;;
30613;SDS011;17381;51.690;5.270;2023-03-21T21:16:19;17.75;;;9.02;;
30613;SDS011;17381;51.690;5.270;2023-03-21T21:18:55;15.93;;;8.07;;
30613;SDS011;17381;51.690;5.270;2023-03-21T21:21:36;14.02;;;7.00;;
30613;SDS011;17381;51.690;5.270;2023-03-21T21:31:35;13.02;;;6.78;;
30613;SDS011;17381;51.690;5.270;2023-03-21T21:34:01;12.40;;;6.70;;
30613;SDS011;17381;51.690;5.270;2023-03-21T21:36:30;13.68;;;7.43;;
30613;SDS011;17381;51.690;5.270;2023-03-21T21:38:59;11.75;;;6.95;;
30613;SDS011;17381;51.690;5.270;2023-03-21T21:41:26;11.52;;;6.45;;
30613;SDS011;17381;51.690;5.270;2023-03-21T21:44:05;10.55;;;6.03;;
30613;SDS011;17381;51.690;5.270;2023-03-21T21:46:36;12.52;;;6.13;;
30613;SDS011;17381;51.690;5.270;2023-03-21T21:49:12;10.65;;;6.32;;
30613;SDS011;17381;51.690;5.270;2023-03-21T21:51:41;9.43;;;5.65;;
30613;SDS011;17381;51.690;5.270;2023-03-21T21:54:31;11.27;;;5.80;;
30613;SDS011;17381;51.690;5.270;2023-03-21T21:57:19;12.02;;;5.50;;
30613;SDS011;17381;51.690;5.270;2023-03-21T21:59:56;12.88;;;6.55;;
30613;SDS011;17381;51.690;5.270;2023-03-21T22:02:38;12.88;;;6.53;;
30613;SDS011;17381;51.690;5.270;2023-03-21T22:05:11;11.40;;;6.30;;
30613;SDS011;17381;51.690;5.270;2023-03-21T22:07:58;12.35;;;6.50;;
30613;SDS011;17381;51.690;5.270;2023-03-21T22:10:32;11.98;;;5.40;;
30613;SDS011;17381;51.690;5.270;2023-03-21T22:13:13;17.48;;;6.25;;
30613;SDS011;17381;51.690;5.270;2023-03-21T22:15:47;11.23;;;5.38;;
30613;SDS011;17381;51.690;5.270;2023-03-21T22:18:24;9.95;;;5.53;;
30613;SDS011;17381;51.690;5.270;2023-03-21T22:21:04;10.05;;;5.28;;
30613;SDS011;17381;51.690;5.270;2023-03-21T22:23:36;10.90;;;4.80;;
30613;SDS011;17381;51.690;5.270;2023-03-21T22:26:16;7.82;;;4.32;;